sensor_id;sensor_type;location;lat;lon;timestamp;P1;durP1;ratioP1;P2;durP2;ratioP2
31966;SDS011;18496;52.042;6.812;2023-12-22T00:00:52;18.83;;;3.35;;
31966;SDS011;18496;52.042;6.812;2023-12-22T00:02:56;14.68;;;3.60;;
31966;SDS011;18496;52.042;6.812;2023-12-22T00:04:59;15.77;;;3.58;;
31966;SDS011;18496;52.042;6.812;2023-12-22T00:07:03;15.73;;;2.97;;
31966;SDS011;18496;52.042;6.812;2023-12-22T00:09:07;22.83;;;3.45;;
31966;SDS011;18496;52.042;6.812;2023-12-22T00:11:11;20.13;;;3.50;;
31966;SDS011;18496;52.042;6.812;2023-12-22T00:13:14;19.23;;;3.05;;
31966;SDS011;18496;52.042;6.812;2023-12-22T00:15:18;14.85;;;2.60;;
31966;SDS011;18496;52.042;6.812;2023-12-22T00:17:22;12.85;;;2.22;;
31966;SDS011;18496;52.042;6.812;2023-12-22T00:19:26;19.45;;;2.53;;
31966;SDS011;18496;52.042;6.812;2023-12-22T00:21:29;14.63;;;2.45;;
31966;SDS011;18496;52.042;6.812;2023-12-22T00:23:34;18.20;;;3.25;;
31966;SDS011;18496;52.042;6.812;2023-12-22T00:25:39;11.95;;;2.78;;
31966;SDS011;18496;52.042;6.812;2023-12-22T00:27:42;20.92;;;3.60;;
31966;SDS011;18496;52.042;6.812;2023-12-22T00:29:46;17.08;;;3.35;;
31966;SDS011;18496;52.042;6.812;2023-12-22T00:31:50;16.58;;;3.25;;
31966;SDS011;18496;52.042;6.812;2023-12-22T00:33:53;15.40;;;3.20;;
31966;SDS011;18496;52.042;6.812;2023-12-22T00:35:57;15.63;;;2.45;;
31966;SDS011;18496;52.042;6.812;2023-12-22T00:38:01;22.77;;;3.20;;
31966;SDS011;18496;52.042;6.812;2023-12-22T00:40:05;19.88;;;2.53;;
31966;SDS011;18496;52.042;6.812;2023-12-22T00:42:11;15.68;;;3.75;;
31966;SDS011;18496;52.042;6.812;2023-12-22T00:44:14;13.32;;;3.03;;
31966;SDS011;18496;52.042;6.812;2023-12-22T00:46:18;23.60;;;3.65;;
31966;SDS011;18496;52.042;6.812;2023-12-22T00:48:23;11.73;;;2.60;;
31966;SDS011;18496;52.042;6.812;2023-12-22T00:50:27;18.92;;;3.42;;
31966;SDS011;18496;52.042;6.812;2023-12-22T00:52:31;22.13;;;3.70;;
31966;SDS011;18496;52.042;6.812;2023-12-22T00:54:35;24.67;;;2.88;;
31966;SDS011;18496;52.042;6.812;2023-12-22T00:56:38;14.80;;;2.88;;
31966;SDS011;18496;52.042;6.812;2023-12-22T00:58:42;18.00;;;3.28;;
31966;SDS011;18496;52.042;6.812;2023-12-22T01:00:46;21.30;;;3.00;;
31966;SDS011;18496;52.042;6.812;2023-12-22T01:02:49;20.50;;;3.30;;
31966;SDS011;18496;52.042;6.812;2023-12-22T01:04:53;22.33;;;3.15;;
31966;SDS011;18496;52.042;6.812;2023-12-22T01:06:57;14.32;;;2.78;;
31966;SDS011;18496;52.042;6.812;2023-12-22T01:09:00;26.25;;;3.45;;
31966;SDS011;18496;52.042;6.812;2023-12-22T01:11:05;12.32;;;2.97;;
31966;SDS011;18496;52.042;6.812;2023-12-22T01:13:08;17.85;;;2.75;;
31966;SDS011;18496;52.042;6.812;2023-12-22T01:15:12;15.45;;;2.78;;
31966;SDS011;18496;52.042;6.812;2023-12-22T01:17:16;13.90;;;2.47;;
31966;SDS011;18496;52.042;6.812;2023-12-22T01:19:20;14.98;;;3.10;;
31966;SDS011;18496;52.042;6.812;2023-12-22T01:21:23;10.73;;;2.60;;
31966;SDS011;18496;52.042;6.812;2023-12-22T01:23:27;16.48;;;2.88;;
31966;SDS011;18496;52.042;6.812;2023-12-22T01:25:31;16.52;;;2.90;;
31966;SDS011;18496;52.042;6.812;2023-12-22T01:27:34;18.55;;;2.88;;
31966;SDS011;18496;52.042;6.812;2023-12-22T01:29:38;14.48;;;2.80;;
31966;SDS011;18496;52.042;6.812;2023-12-22T01:31:42;14.10;;;2.78;;
31966;SDS011;18496;52.042;6.812;2023-12-22T01:33:46;24.98;;;3.28;;
31966;SDS011;18496;52.042;6.812;2023-12-22T01:35:49;22.50;;;2.53;;
31966;SDS011;18496;52.042;6.812;2023-12-22T01:37:53;22.50;;;4.22;;
31966;SDS011;18496;52.042;6.812;2023-12-22T01:39:57;15.60;;;2.20;;
31966;SDS011;18496;52.042;6.812;2023-12-22T01:42:01;17.50;;;2.47;;
31966;SDS011;18496;52.042;6.812;2023-12-22T01:44:05;13.60;;;2.05;;
31966;SDS011;18496;52.042;6.812;2023-12-22T01:46:08;16.17;;;2.63;;
31966;SDS011;18496;52.042;6.812;2023-12-22T01:48:13;11.93;;;2.13;;
31966;SDS011;18496;52.042;6.812;2023-12-22T01:50:17;16.35;;;2.20;;
31966;SDS011;18496;52.042;6.812;2023-12-22T01:52:21;19.33;;;2.63;;
31966;SDS011;18496;52.042;6.812;2023-12-22T01:54:25;15.65;;;2.83;;
31966;SDS011;18496;52.042;6.812;2023-12-22T01:56:29;12.82;;;2.47;;
31966;SDS011;18496;52.042;6.812;2023-12-22T01:58:34;12.98;;;1.90;;
31966;SDS011;18496;52.042;6.812;2023-12-22T02:00:51;12.20;;;3.60;;
31966;SDS011;18496;52.042;6.812;2023-12-22T02:02:56;16.42;;;2.85;;
31966;SDS011;18496;52.042;6.812;2023-12-22T02:05:00;14.75;;;2.58;;
31966;SDS011;18496;52.042;6.812;2023-12-22T02:07:03;15.60;;;2.63;;
31966;SDS011;18496;52.042;6.812;2023-12-22T02:09:11;12.93;;;2.30;;
31966;SDS011;18496;52.042;6.812;2023-12-22T02:11:15;15.90;;;2.90;;
31966;SDS011;18496;52.042;6.812;2023-12-22T02:13:19;10.15;;;1.88;;
31966;SDS011;18496;52.042;6.812;2023-12-22T02:15:23;7.60;;;2.28;;
31966;SDS011;18496;52.042;6.812;2023-12-22T02:17:29;16.60;;;2.15;;
31966;SDS011;18496;52.042;6.812;2023-12-22T02:19:42;11.85;;;2.33;;
31966;SDS011;18496;52.042;6.812;2023-12-22T02:22:04;14.82;;;2.67;;
31966;SDS011;18496;52.042;6.812;2023-12-22T02:24:08;7.72;;;1.73;;
31966;SDS011;18496;52.042;6.812;2023-12-22T02:26:17;8.65;;;1.35;;
31966;SDS011;18496;52.042;6.812;2023-12-22T02:28:29;9.35;;;1.92;;
31966;SDS011;18496;52.042;6.812;2023-12-22T02:33:16;5.13;;;1.30;;
31966;SDS011;18496;52.042;6.812;2023-12-22T02:35:23;4.70;;;1.20;;
31966;SDS011;18496;52.042;6.812;2023-12-22T02:37:28;7.25;;;1.20;;
31966;SDS011;18496;52.042;6.812;2023-12-22T02:39:33;9.02;;;1.15;;
31966;SDS011;18496;52.042;6.812;2023-12-22T02:41:37;6.60;;;1.20;;
31966;SDS011;18496;52.042;6.812;2023-12-22T02:43:42;4.47;;;0.50;;
31966;SDS011;18496;52.042;6.812;2023-12-22T02:45:49;8.10;;;1.85;;
31966;SDS011;18496;52.042;6.812;2023-12-22T02:47:54;3.60;;;0.93;;
31966;SDS011;18496;52.042;6.812;2023-12-22T02:49:57;4.10;;;1.05;;
31966;SDS011;18496;52.042;6.812;2023-12-22T02:52:01;11.73;;;1.65;;
31966;SDS011;18496;52.042;6.812;2023-12-22T02:54:05;19.40;;;1.65;;
31966;SDS011;18496;52.042;6.812;2023-12-22T02:56:08;16.30;;;1.58;;
31966;SDS011;18496;52.042;6.812;2023-12-22T02:58:12;5.50;;;1.33;;
31966;SDS011;18496;52.042;6.812;2023-12-22T03:00:16;8.57;;;1.92;;
31966;SDS011;18496;52.042;6.812;2023-12-22T03:02:20;11.80;;;1.20;;
31966;SDS011;18496;52.042;6.812;2023-12-22T03:04:23;9.02;;;1.25;;
31966;SDS011;18496;52.042;6.812;2023-12-22T03:06:27;4.97;;;1.75;;
31966;SDS011;18496;52.042;6.812;2023-12-22T03:08:31;9.00;;;1.42;;
31966;SDS011;18496;52.042;6.812;2023-12-22T03:10:34;10.90;;;1.83;;
31966;SDS011;18496;52.042;6.812;2023-12-22T03:12:38;7.35;;;1.33;;
31966;SDS011;18496;52.042;6.812;2023-12-22T03:14:42;4.05;;;1.02;;
31966;SDS011;18496;52.042;6.812;2023-12-22T03:16:45;3.72;;;1.15;;
31966;SDS011;18496;52.042;6.812;2023-12-22T03:18:49;12.95;;;1.92;;
31966;SDS011;18496;52.042;6.812;2023-12-22T03:20:53;11.15;;;1.60;;
31966;SDS011;18496;52.042;6.812;2023-12-22T03:22:57;21.15;;;1.98;;
31966;SDS011;18496;52.042;6.812;2023-12-22T03:25:00;9.02;;;1.30;;
31966;SDS011;18496;52.042;6.812;2023-12-22T03:27:04;8.80;;;1.50;;
31966;SDS011;18496;52.042;6.812;2023-12-22T03:29:08;13.18;;;2.05;;
31966;SDS011;18496;52.042;6.812;2023-12-22T03:31:11;5.93;;;1.58;;
31966;SDS011;18496;52.042;6.812;2023-12-22T03:33:15;14.10;;;2.10;;
31966;SDS011;18496;52.042;6.812;2023-12-22T03:35:19;14.00;;;1.52;;
31966;SDS011;18496;52.042;6.812;2023-12-22T03:37:23;2.42;;;0.90;;
31966;SDS011;18496;52.042;6.812;2023-12-22T03:39:26;9.25;;;0.90;;
31966;SDS011;18496;52.042;6.812;2023-12-22T03:41:30;3.92;;;1.08;;
31966;SDS011;18496;52.042;6.812;2023-12-22T03:43:34;4.93;;;0.70;;
31966;SDS011;18496;52.042;6.812;2023-12-22T03:45:38;6.03;;;1.02;;
31966;SDS011;18496;52.042;6.812;2023-12-22T03:47:41;2.67;;;0.70;;
31966;SDS011;18496;52.042;6.812;2023-12-22T03:49:45;4.63;;;1.00;;
31966;SDS011;18496;52.042;6.812;2023-12-22T03:51:49;11.07;;;1.02;;
31966;SDS011;18496;52.042;6.812;2023-12-22T03:53:52;9.57;;;1.58;;
31966;SDS011;18496;52.042;6.812;2023-12-22T03:55:56;10.23;;;1.67;;
31966;SDS011;18496;52.042;6.812;2023-12-22T03:58:00;10.65;;;1.20;;
31966;SDS011;18496;52.042;6.812;2023-12-22T04:00:04;15.52;;;1.85;;
31966;SDS011;18496;52.042;6.812;2023-12-22T04:02:08;14.80;;;2.28;;
31966;SDS011;18496;52.042;6.812;2023-12-22T04:04:12;10.05;;;1.65;;
31966;SDS011;18496;52.042;6.812;2023-12-22T04:06:16;10.02;;;1.77;;
31966;SDS011;18496;52.042;6.812;2023-12-22T04:08:19;8.05;;;1.95;;
31966;SDS011;18496;52.042;6.812;2023-12-22T04:10:23;11.82;;;2.13;;
31966;SDS011;18496;52.042;6.812;2023-12-22T04:12:27;13.65;;;2.10;;
31966;SDS011;18496;52.042;6.812;2023-12-22T04:14:31;9.77;;;1.55;;
31966;SDS011;18496;52.042;6.812;2023-12-22T04:16:36;9.95;;;1.85;;
31966;SDS011;18496;52.042;6.812;2023-12-22T04:18:41;10.68;;;2.42;;
31966;SDS011;18496;52.042;6.812;2023-12-22T04:20:45;13.40;;;1.90;;
31966;SDS011;18496;52.042;6.812;2023-12-22T04:22:49;11.80;;;2.40;;
31966;SDS011;18496;52.042;6.812;2023-12-22T04:24:53;15.10;;;1.98;;
31966;SDS011;18496;52.042;6.812;2023-12-22T04:26:57;10.70;;;2.33;;
31966;SDS011;18496;52.042;6.812;2023-12-22T04:29:01;14.13;;;2.15;;
31966;SDS011;18496;52.042;6.812;2023-12-22T04:31:05;8.32;;;1.92;;
31966;SDS011;18496;52.042;6.812;2023-12-22T04:33:09;8.32;;;2.17;;
31966;SDS011;18496;52.042;6.812;2023-12-22T04:35:13;8.52;;;2.20;;
31966;SDS011;18496;52.042;6.812;2023-12-22T04:37:17;16.15;;;2.20;;
31966;SDS011;18496;52.042;6.812;2023-12-22T04:39:20;8.63;;;2.05;;
31966;SDS011;18496;52.042;6.812;2023-12-22T04:41:24;12.02;;;1.40;;
31966;SDS011;18496;52.042;6.812;2023-12-22T04:43:28;12.98;;;2.28;;
31966;SDS011;18496;52.042;6.812;2023-12-22T04:45:31;9.55;;;1.50;;
31966;SDS011;18496;52.042;6.812;2023-12-22T04:47:35;12.48;;;2.58;;
31966;SDS011;18496;52.042;6.812;2023-12-22T04:49:39;15.07;;;1.80;;
31966;SDS011;18496;52.042;6.812;2023-12-22T04:51:43;16.70;;;1.90;;
31966;SDS011;18496;52.042;6.812;2023-12-22T04:53:46;10.80;;;2.75;;
31966;SDS011;18496;52.042;6.812;2023-12-22T04:55:50;16.70;;;2.80;;
31966;SDS011;18496;52.042;6.812;2023-12-22T04:57:54;8.43;;;1.90;;
31966;SDS011;18496;52.042;6.812;2023-12-22T04:59:57;12.70;;;2.03;;
31966;SDS011;18496;52.042;6.812;2023-12-22T05:02:01;7.70;;;2.20;;
31966;SDS011;18496;52.042;6.812;2023-12-22T05:04:05;7.75;;;1.42;;
31966;SDS011;18496;52.042;6.812;2023-12-22T05:06:09;10.80;;;2.10;;
31966;SDS011;18496;52.042;6.812;2023-12-22T05:08:13;8.20;;;1.60;;
31966;SDS011;18496;52.042;6.812;2023-12-22T05:10:16;13.23;;;2.30;;
31966;SDS011;18496;52.042;6.812;2023-12-22T05:12:20;11.40;;;1.92;;
31966;SDS011;18496;52.042;6.812;2023-12-22T05:14:24;15.73;;;2.17;;
31966;SDS011;18496;52.042;6.812;2023-12-22T05:16:28;15.00;;;2.70;;
31966;SDS011;18496;52.042;6.812;2023-12-22T05:18:34;11.93;;;1.92;;
31966;SDS011;18496;52.042;6.812;2023-12-22T05:20:37;11.73;;;2.97;;
31966;SDS011;18496;52.042;6.812;2023-12-22T05:22:41;9.75;;;2.33;;
31966;SDS011;18496;52.042;6.812;2023-12-22T05:24:45;10.35;;;2.33;;
31966;SDS011;18496;52.042;6.812;2023-12-22T05:26:49;10.35;;;2.35;;
31966;SDS011;18496;52.042;6.812;2023-12-22T05:28:52;12.07;;;2.22;;
31966;SDS011;18496;52.042;6.812;2023-12-22T05:30:56;13.30;;;1.83;;
31966;SDS011;18496;52.042;6.812;2023-12-22T05:33:00;12.40;;;1.90;;
31966;SDS011;18496;52.042;6.812;2023-12-22T05:35:03;10.63;;;2.30;;
31966;SDS011;18496;52.042;6.812;2023-12-22T05:37:08;19.40;;;2.65;;
31966;SDS011;18496;52.042;6.812;2023-12-22T05:39:11;12.55;;;2.17;;
31966;SDS011;18496;52.042;6.812;2023-12-22T05:41:15;15.82;;;3.00;;
31966;SDS011;18496;52.042;6.812;2023-12-22T05:43:20;13.77;;;2.55;;
31966;SDS011;18496;52.042;6.812;2023-12-22T05:45:24;17.60;;;2.72;;
31966;SDS011;18496;52.042;6.812;2023-12-22T05:47:27;14.27;;;2.13;;
31966;SDS011;18496;52.042;6.812;2023-12-22T05:49:31;12.32;;;2.03;;
31966;SDS011;18496;52.042;6.812;2023-12-22T05:51:39;12.60;;;2.10;;
31966;SDS011;18496;52.042;6.812;2023-12-22T05:53:42;7.03;;;1.85;;
31966;SDS011;18496;52.042;6.812;2023-12-22T05:55:46;12.68;;;2.53;;
31966;SDS011;18496;52.042;6.812;2023-12-22T05:57:50;12.82;;;1.92;;
31966;SDS011;18496;52.042;6.812;2023-12-22T05:59:54;12.48;;;2.20;;
31966;SDS011;18496;52.042;6.812;2023-12-22T06:01:58;15.52;;;2.55;;
31966;SDS011;18496;52.042;6.812;2023-12-22T06:04:02;14.23;;;2.38;;
31966;SDS011;18496;52.042;6.812;2023-12-22T06:06:06;9.02;;;2.05;;
31966;SDS011;18496;52.042;6.812;2023-12-22T06:08:10;20.52;;;2.25;;
31966;SDS011;18496;52.042;6.812;2023-12-22T06:10:13;12.60;;;2.15;;
31966;SDS011;18496;52.042;6.812;2023-12-22T06:12:17;15.55;;;2.88;;
31966;SDS011;18496;52.042;6.812;2023-12-22T06:14:21;12.18;;;2.20;;
31966;SDS011;18496;52.042;6.812;2023-12-22T06:16:25;10.30;;;1.63;;
31966;SDS011;18496;52.042;6.812;2023-12-22T06:18:29;15.35;;;2.60;;
31966;SDS011;18496;52.042;6.812;2023-12-22T06:20:32;12.90;;;2.53;;
31966;SDS011;18496;52.042;6.812;2023-12-22T06:22:37;14.20;;;2.72;;
31966;SDS011;18496;52.042;6.812;2023-12-22T06:24:41;20.13;;;2.67;;
31966;SDS011;18496;52.042;6.812;2023-12-22T06:26:45;13.63;;;2.47;;
31966;SDS011;18496;52.042;6.812;2023-12-22T06:28:48;11.60;;;2.13;;
31966;SDS011;18496;52.042;6.812;2023-12-22T06:30:52;20.27;;;3.20;;
31966;SDS011;18496;52.042;6.812;2023-12-22T06:32:57;15.05;;;3.15;;
31966;SDS011;18496;52.042;6.812;2023-12-22T06:35:01;13.15;;;2.40;;
31966;SDS011;18496;52.042;6.812;2023-12-22T06:37:05;15.35;;;2.95;;
31966;SDS011;18496;52.042;6.812;2023-12-22T06:39:11;22.60;;;2.67;;
31966;SDS011;18496;52.042;6.812;2023-12-22T06:43:25;17.20;;;2.40;;
31966;SDS011;18496;52.042;6.812;2023-12-22T06:45:29;22.60;;;2.97;;
31966;SDS011;18496;52.042;6.812;2023-12-22T06:47:33;13.40;;;2.65;;
31966;SDS011;18496;52.042;6.812;2023-12-22T06:49:37;22.80;;;2.67;;
31966;SDS011;18496;52.042;6.812;2023-12-22T06:51:40;18.98;;;3.20;;
31966;SDS011;18496;52.042;6.812;2023-12-22T06:53:44;22.80;;;4.07;;
31966;SDS011;18496;52.042;6.812;2023-12-22T06:55:48;17.60;;;3.25;;
31966;SDS011;18496;52.042;6.812;2023-12-22T06:57:52;20.23;;;4.28;;
31966;SDS011;18496;52.042;6.812;2023-12-22T06:59:56;20.63;;;3.70;;
31966;SDS011;18496;52.042;6.812;2023-12-22T07:02:00;16.05;;;3.75;;
31966;SDS011;18496;52.042;6.812;2023-12-22T07:04:03;14.73;;;2.25;;
31966;SDS011;18496;52.042;6.812;2023-12-22T07:06:07;14.63;;;2.05;;
31966;SDS011;18496;52.042;6.812;2023-12-22T07:08:11;15.40;;;2.05;;
31966;SDS011;18496;52.042;6.812;2023-12-22T07:10:16;20.33;;;2.42;;
31966;SDS011;18496;52.042;6.812;2023-12-22T07:12:19;10.48;;;1.80;;
31966;SDS011;18496;52.042;6.812;2023-12-22T07:14:23;12.68;;;1.75;;
31966;SDS011;18496;52.042;6.812;2023-12-22T07:16:27;9.60;;;2.40;;
31966;SDS011;18496;52.042;6.812;2023-12-22T07:18:31;12.35;;;2.65;;
31966;SDS011;18496;52.042;6.812;2023-12-22T07:20:35;12.68;;;2.15;;
31966;SDS011;18496;52.042;6.812;2023-12-22T07:22:38;10.13;;;1.60;;
31966;SDS011;18496;52.042;6.812;2023-12-22T07:24:42;5.90;;;1.70;;
31966;SDS011;18496;52.042;6.812;2023-12-22T07:26:46;8.60;;;1.77;;
31966;SDS011;18496;52.042;6.812;2023-12-22T07:28:49;5.88;;;1.40;;
31966;SDS011;18496;52.042;6.812;2023-12-22T07:30:53;9.40;;;1.52;;
31966;SDS011;18496;52.042;6.812;2023-12-22T07:32:58;6.07;;;1.08;;
31966;SDS011;18496;52.042;6.812;2023-12-22T07:35:02;6.68;;;0.88;;
31966;SDS011;18496;52.042;6.812;2023-12-22T07:37:06;8.35;;;1.75;;
31966;SDS011;18496;52.042;6.812;2023-12-22T07:39:09;6.25;;;1.13;;
31966;SDS011;18496;52.042;6.812;2023-12-22T07:41:13;3.75;;;1.00;;
31966;SDS011;18496;52.042;6.812;2023-12-22T07:43:17;6.95;;;1.77;;
31966;SDS011;18496;52.042;6.812;2023-12-22T07:45:21;8.23;;;1.38;;
31966;SDS011;18496;52.042;6.812;2023-12-22T07:47:25;8.50;;;1.75;;
31966;SDS011;18496;52.042;6.812;2023-12-22T07:49:29;7.70;;;1.20;;
31966;SDS011;18496;52.042;6.812;2023-12-22T07:51:33;9.68;;;1.13;;
31966;SDS011;18496;52.042;6.812;2023-12-22T07:53:37;5.03;;;1.50;;
31966;SDS011;18496;52.042;6.812;2023-12-22T07:55:42;11.55;;;1.17;;
31966;SDS011;18496;52.042;6.812;2023-12-22T07:57:47;3.58;;;1.30;;
31966;SDS011;18496;52.042;6.812;2023-12-22T07:59:50;12.65;;;1.80;;
31966;SDS011;18496;52.042;6.812;2023-12-22T08:01:55;8.93;;;1.50;;
31966;SDS011;18496;52.042;6.812;2023-12-22T08:03:59;13.65;;;1.90;;
31966;SDS011;18496;52.042;6.812;2023-12-22T08:06:03;5.20;;;1.90;;
31966;SDS011;18496;52.042;6.812;2023-12-22T08:08:07;11.88;;;2.08;;
31966;SDS011;18496;52.042;6.812;2023-12-22T08:10:12;7.85;;;2.08;;
31966;SDS011;18496;52.042;6.812;2023-12-22T08:12:16;12.13;;;2.33;;
31966;SDS011;18496;52.042;6.812;2023-12-22T08:14:19;10.73;;;2.28;;
31966;SDS011;18496;52.042;6.812;2023-12-22T08:16:23;11.38;;;2.30;;
31966;SDS011;18496;52.042;6.812;2023-12-22T08:18:27;7.70;;;1.10;;
31966;SDS011;18496;52.042;6.812;2023-12-22T08:20:31;7.57;;;1.63;;
31966;SDS011;18496;52.042;6.812;2023-12-22T08:22:34;16.33;;;1.90;;
31966;SDS011;18496;52.042;6.812;2023-12-22T08:24:38;6.95;;;1.27;;
31966;SDS011;18496;52.042;6.812;2023-12-22T08:26:42;11.32;;;1.40;;
31966;SDS011;18496;52.042;6.812;2023-12-22T08:28:46;8.38;;;1.75;;
31966;SDS011;18496;52.042;6.812;2023-12-22T08:30:49;11.02;;;1.95;;
31966;SDS011;18496;52.042;6.812;2023-12-22T08:32:53;10.98;;;1.55;;
31966;SDS011;18496;52.042;6.812;2023-12-22T08:34:57;10.18;;;1.88;;
31966;SDS011;18496;52.042;6.812;2023-12-22T08:37:01;16.02;;;2.25;;
31966;SDS011;18496;52.042;6.812;2023-12-22T08:39:04;9.52;;;2.40;;
31966;SDS011;18496;52.042;6.812;2023-12-22T08:41:08;18.60;;;3.08;;
31966;SDS011;18496;52.042;6.812;2023-12-22T08:43:14;20.23;;;3.55;;
31966;SDS011;18496;52.042;6.812;2023-12-22T08:45:18;15.10;;;2.55;;
31966;SDS011;18496;52.042;6.812;2023-12-22T08:47:22;8.20;;;2.17;;
31966;SDS011;18496;52.042;6.812;2023-12-22T08:49:26;13.57;;;2.40;;
31966;SDS011;18496;52.042;6.812;2023-12-22T08:51:29;8.35;;;1.40;;
31966;SDS011;18496;52.042;6.812;2023-12-22T08:53:33;10.55;;;3.38;;
31966;SDS011;18496;52.042;6.812;2023-12-22T08:55:40;11.10;;;2.55;;
31966;SDS011;18496;52.042;6.812;2023-12-22T08:57:43;19.05;;;4.80;;
31966;SDS011;18496;52.042;6.812;2023-12-22T08:59:47;17.52;;;4.00;;
31966;SDS011;18496;52.042;6.812;2023-12-22T09:01:51;14.80;;;3.33;;
31966;SDS011;18496;52.042;6.812;2023-12-22T09:03:55;34.95;;;7.22;;
31966;SDS011;18496;52.042;6.812;2023-12-22T09:05:58;9.77;;;2.72;;
31966;SDS011;18496;52.042;6.812;2023-12-22T09:08:02;16.08;;;4.45;;
31966;SDS011;18496;52.042;6.812;2023-12-22T09:10:06;16.40;;;3.72;;
31966;SDS011;18496;52.042;6.812;2023-12-22T09:12:10;18.45;;;3.05;;
31966;SDS011;18496;52.042;6.812;2023-12-22T09:14:14;16.08;;;2.50;;
31966;SDS011;18496;52.042;6.812;2023-12-22T09:16:21;12.35;;;2.33;;
31966;SDS011;18496;52.042;6.812;2023-12-22T09:18:26;20.80;;;3.10;;
31966;SDS011;18496;52.042;6.812;2023-12-22T09:20:30;25.42;;;3.65;;
31966;SDS011;18496;52.042;6.812;2023-12-22T09:22:33;15.23;;;2.90;;
31966;SDS011;18496;52.042;6.812;2023-12-22T09:24:37;16.42;;;3.17;;
31966;SDS011;18496;52.042;6.812;2023-12-22T09:26:41;19.15;;;3.53;;
31966;SDS011;18496;52.042;6.812;2023-12-22T09:28:45;13.90;;;3.83;;
31966;SDS011;18496;52.042;6.812;2023-12-22T09:30:49;18.25;;;3.53;;
31966;SDS011;18496;52.042;6.812;2023-12-22T09:32:52;18.48;;;4.13;;
31966;SDS011;18496;52.042;6.812;2023-12-22T09:34:56;22.95;;;4.20;;
31966;SDS011;18496;52.042;6.812;2023-12-22T09:37:02;17.35;;;3.22;;
31966;SDS011;18496;52.042;6.812;2023-12-22T09:39:06;13.82;;;2.80;;
31966;SDS011;18496;52.042;6.812;2023-12-22T09:41:10;20.27;;;3.25;;
31966;SDS011;18496;52.042;6.812;2023-12-22T09:43:14;17.90;;;3.13;;
31966;SDS011;18496;52.042;6.812;2023-12-22T09:45:18;19.67;;;4.00;;
31966;SDS011;18496;52.042;6.812;2023-12-22T09:47:23;21.02;;;3.55;;
31966;SDS011;18496;52.042;6.812;2023-12-22T09:49:28;18.30;;;2.90;;
31966;SDS011;18496;52.042;6.812;2023-12-22T09:51:32;18.00;;;3.97;;
31966;SDS011;18496;52.042;6.812;2023-12-22T09:53:38;22.20;;;3.20;;
31966;SDS011;18496;52.042;6.812;2023-12-22T09:55:44;12.85;;;3.03;;
31966;SDS011;18496;52.042;6.812;2023-12-22T09:57:52;19.60;;;3.92;;
31966;SDS011;18496;52.042;6.812;2023-12-22T09:59:57;13.85;;;2.80;;
31966;SDS011;18496;52.042;6.812;2023-12-22T10:02:03;19.75;;;3.03;;
31966;SDS011;18496;52.042;6.812;2023-12-22T10:04:09;14.60;;;3.08;;
31966;SDS011;18496;52.042;6.812;2023-12-22T10:06:13;16.55;;;2.90;;
31966;SDS011;18496;52.042;6.812;2023-12-22T10:08:20;14.15;;;2.58;;
31966;SDS011;18496;52.042;6.812;2023-12-22T10:10:25;12.48;;;2.80;;
31966;SDS011;18496;52.042;6.812;2023-12-22T10:12:30;14.98;;;2.50;;
31966;SDS011;18496;52.042;6.812;2023-12-22T10:14:36;14.57;;;2.97;;
31966;SDS011;18496;52.042;6.812;2023-12-22T10:16:41;15.95;;;3.05;;
31966;SDS011;18496;52.042;6.812;2023-12-22T10:18:44;7.85;;;2.55;;
31966;SDS011;18496;52.042;6.812;2023-12-22T10:20:50;14.82;;;2.65;;
31966;SDS011;18496;52.042;6.812;2023-12-22T10:22:53;10.52;;;2.38;;
31966;SDS011;18496;52.042;6.812;2023-12-22T10:24:57;20.45;;;3.08;;
31966;SDS011;18496;52.042;6.812;2023-12-22T10:27:01;18.08;;;2.50;;
31966;SDS011;18496;52.042;6.812;2023-12-22T10:29:05;12.52;;;2.85;;
31966;SDS011;18496;52.042;6.812;2023-12-22T10:31:11;20.33;;;3.22;;
31966;SDS011;18496;52.042;6.812;2023-12-22T10:33:14;16.98;;;3.35;;
31966;SDS011;18496;52.042;6.812;2023-12-22T10:35:21;17.30;;;3.03;;
31966;SDS011;18496;52.042;6.812;2023-12-22T10:37:26;9.50;;;3.15;;
31966;SDS011;18496;52.042;6.812;2023-12-22T10:39:30;17.60;;;2.83;;
31966;SDS011;18496;52.042;6.812;2023-12-22T10:41:34;13.20;;;3.40;;
31966;SDS011;18496;52.042;6.812;2023-12-22T10:43:39;17.30;;;3.75;;
31966;SDS011;18496;52.042;6.812;2023-12-22T10:45:43;27.73;;;4.00;;
31966;SDS011;18496;52.042;6.812;2023-12-22T10:47:50;20.20;;;3.45;;
31966;SDS011;18496;52.042;6.812;2023-12-22T10:49:54;18.73;;;3.75;;
31966;SDS011;18496;52.042;6.812;2023-12-22T10:51:58;21.80;;;3.50;;
31966;SDS011;18496;52.042;6.812;2023-12-22T10:54:03;16.65;;;3.83;;
31966;SDS011;18496;52.042;6.812;2023-12-22T10:56:08;17.35;;;4.43;;
31966;SDS011;18496;52.042;6.812;2023-12-22T10:58:13;19.20;;;3.53;;
31966;SDS011;18496;52.042;6.812;2023-12-22T11:00:17;18.50;;;3.75;;
31966;SDS011;18496;52.042;6.812;2023-12-22T11:02:26;12.82;;;3.45;;
31966;SDS011;18496;52.042;6.812;2023-12-22T11:04:35;15.82;;;2.40;;
31966;SDS011;18496;52.042;6.812;2023-12-22T11:06:41;8.30;;;1.83;;
31966;SDS011;18496;52.042;6.812;2023-12-22T11:08:46;7.15;;;1.70;;
31966;SDS011;18496;52.042;6.812;2023-12-22T11:10:53;4.85;;;1.80;;
31966;SDS011;18496;52.042;6.812;2023-12-22T11:13:01;5.57;;;1.65;;
31966;SDS011;18496;52.042;6.812;2023-12-22T11:15:06;11.48;;;1.08;;
31966;SDS011;18496;52.042;6.812;2023-12-22T11:17:10;4.45;;;1.25;;
31966;SDS011;18496;52.042;6.812;2023-12-22T11:19:15;3.55;;;0.85;;
31966;SDS011;18496;52.042;6.812;2023-12-22T11:21:21;3.60;;;1.38;;
31966;SDS011;18496;52.042;6.812;2023-12-22T11:23:25;4.32;;;0.98;;
31966;SDS011;18496;52.042;6.812;2023-12-22T11:25:30;9.27;;;1.50;;
31966;SDS011;18496;52.042;6.812;2023-12-22T11:27:34;4.65;;;1.20;;
31966;SDS011;18496;52.042;6.812;2023-12-22T11:29:40;2.63;;;1.10;;
31966;SDS011;18496;52.042;6.812;2023-12-22T11:31:45;4.65;;;0.93;;
31966;SDS011;18496;52.042;6.812;2023-12-22T11:33:50;4.68;;;1.10;;
31966;SDS011;18496;52.042;6.812;2023-12-22T11:35:55;5.78;;;1.20;;
31966;SDS011;18496;52.042;6.812;2023-12-22T11:38:01;8.57;;;1.35;;
31966;SDS011;18496;52.042;6.812;2023-12-22T11:40:06;6.15;;;1.52;;
31966;SDS011;18496;52.042;6.812;2023-12-22T11:42:18;6.90;;;1.08;;
31966;SDS011;18496;52.042;6.812;2023-12-22T11:44:24;7.63;;;1.50;;
31966;SDS011;18496;52.042;6.812;2023-12-22T11:46:28;4.72;;;1.50;;
31966;SDS011;18496;52.042;6.812;2023-12-22T11:48:48;6.97;;;2.10;;
31966;SDS011;18496;52.042;6.812;2023-12-22T11:50:53;7.70;;;1.20;;
31966;SDS011;18496;52.042;6.812;2023-12-22T11:53:17;3.15;;;0.90;;
31966;SDS011;18496;52.042;6.812;2023-12-22T11:58:14;3.00;;;0.82;;
31966;SDS011;18496;52.042;6.812;2023-12-22T12:00:54;7.70;;;1.05;;
31966;SDS011;18496;52.042;6.812;2023-12-22T12:02:58;7.65;;;1.30;;
31966;SDS011;18496;52.042;6.812;2023-12-22T12:05:02;1.83;;;1.15;;
31966;SDS011;18496;52.042;6.812;2023-12-22T12:07:51;4.88;;;1.15;;
31966;SDS011;18496;52.042;6.812;2023-12-22T12:09:46;4.93;;;1.00;;
31966;SDS011;18496;52.042;6.812;2023-12-22T12:14:06;2.58;;;0.80;;
31966;SDS011;18496;52.042;6.812;2023-12-22T12:16:15;9.65;;;1.00;;
31966;SDS011;18496;52.042;6.812;2023-12-22T12:18:24;2.42;;;0.93;;
31966;SDS011;18496;52.042;6.812;2023-12-22T12:20:34;1.95;;;0.82;;
31966;SDS011;18496;52.042;6.812;2023-12-22T12:22:38;3.63;;;1.13;;
31966;SDS011;18496;52.042;6.812;2023-12-22T12:24:42;1.90;;;1.10;;
31966;SDS011;18496;52.042;6.812;2023-12-22T12:26:46;2.67;;;1.33;;
31966;SDS011;18496;52.042;6.812;2023-12-22T12:28:49;2.88;;;1.20;;
31966;SDS011;18496;52.042;6.812;2023-12-22T12:30:57;2.78;;;0.70;;
31966;SDS011;18496;52.042;6.812;2023-12-22T12:33:10;2.33;;;0.68;;